createdAt,value
2019-05-02T00:02:28.929Z,29.53
2019-05-02T00:04:57.680Z,33.17
2019-05-02T00:07:28.647Z,31.77
2019-05-02T00:09:59.593Z,35.67
2019-05-02T00:12:31.143Z,29.83
2019-05-02T00:15:04.048Z,27.53
2019-05-02T00:17:35.361Z,32.50
2019-05-02T00:20:10.120Z,30.57
2019-05-02T00:22:41.275Z,30.50
2019-05-02T00:25:15.956Z,32.57
2019-05-02T00:27:45.144Z,32.90
2019-05-02T00:30:17.392Z,30.80
2019-05-02T00:32:48.415Z,31.60
2019-05-02T00:35:19.286Z,33.03
2019-05-02T00:37:50.209Z,31.07
2019-05-02T00:40:25.709Z,33.63
2019-05-02T00:42:58.232Z,33.33
2019-05-02T00:45:26.635Z,26.73
2019-05-02T00:48:08.869Z,26.73
2019-05-02T00:50:40.871Z,32.77
2019-05-02T00:53:13.524Z,28.17
2019-05-02T00:55:44.620Z,31.57
2019-05-02T00:58:15.625Z,30.10
2019-05-02T01:01:05.005Z,27.53
2019-05-02T01:03:37.152Z,29.27
2019-05-02T01:06:13.976Z,26.13
2019-05-02T01:08:42.094Z,25.60
2019-05-02T01:11:14.103Z,27.57
2019-05-02T01:13:45.111Z,27.03
2019-05-02T01:16:19.177Z,23.80
2019-05-02T01:18:49.082Z,24.70
2019-05-02T01:21:20.074Z,24.10
2019-05-02T01:23:51.122Z,30.57
2019-05-02T01:26:29.288Z,24.87
2019-05-02T01:29:08.953Z,24.80
2019-05-02T01:31:56.624Z,25.50
2019-05-02T01:34:43.114Z,25.10
2019-05-02T01:37:35.668Z,25.90
2019-05-02T01:40:07.145Z,25.83
2019-05-02T01:42:39.981Z,27.17
2019-05-02T01:45:12.467Z,25.67
2019-05-02T01:47:43.533Z,21.50
2019-05-02T01:50:14.947Z,14.97
2019-05-02T01:52:45.811Z,21.17
2019-05-02T01:55:17.034Z,21.60
2019-05-02T01:57:49.321Z,18.00
2019-05-02T02:00:22.479Z,23.70
2019-05-02T02:02:53.345Z,22.23
2019-05-02T02:05:27.634Z,19.97
2019-05-02T02:07:58.887Z,18.57
2019-05-02T02:10:31.032Z,18.60
2019-05-02T02:13:04.911Z,17.93
2019-05-02T02:15:34.674Z,19.47
2019-05-02T02:18:06.043Z,19.20
2019-05-02T02:20:48.807Z,21.73
2019-05-02T02:23:27.799Z,22.20
2019-05-02T02:26:06.795Z,18.80
2019-05-02T02:28:36.563Z,22.13
2019-05-02T02:31:08.106Z,16.87
2019-05-02T02:33:40.789Z,15.93
2019-05-02T02:36:11.864Z,14.40
2019-05-02T02:38:42.875Z,17.57
2019-05-02T02:41:15.070Z,17.23
2019-05-02T02:43:54.775Z,17.27
2019-05-02T02:46:37.752Z,17.00
2019-05-02T02:49:04.579Z,17.63
2019-05-02T02:51:35.534Z,16.43
2019-05-02T02:54:07.959Z,17.40
2019-05-02T02:56:40.423Z,17.60
2019-05-02T02:59:11.682Z,17.27
2019-05-02T03:01:42.608Z,14.53
2019-05-02T03:04:13.600Z,15.57
2019-05-02T03:06:46.976Z,14.60
2019-05-02T03:09:20.362Z,13.70
2019-05-02T03:12:07.372Z,16.40
2019-05-02T03:14:47.092Z,16.40
2019-05-02T03:17:20.564Z,13.70
2019-05-02T03:19:48.604Z,16.73
2019-05-02T03:22:19.750Z,18.10
2019-05-02T03:24:50.837Z,14.93
2019-05-02T03:27:22.517Z,16.70
2019-05-02T03:29:53.676Z,17.13
2019-05-02T03:32:33.725Z,15.77
2019-05-02T03:35:00.957Z,17.13
2019-05-02T03:37:32.149Z,17.33
2019-05-02T03:40:03.165Z,16.80
2019-05-02T03:42:43.693Z,15.60
2019-05-02T03:45:07.600Z,18.23
2019-05-02T03:47:43.861Z,14.17
2019-05-02T03:50:11.669Z,16.03
2019-05-02T03:52:46.377Z,14.90
2019-05-02T03:55:16.523Z,14.80
2019-05-02T03:57:47.473Z,16.60
2019-05-02T04:00:23.758Z,18.77
2019-05-02T04:02:58.915Z,17.07
2019-05-02T04:05:26.091Z,14.30
2019-05-02T04:07:57.317Z,15.23
2019-05-02T04:11:22.274Z,18.93
2019-05-02T04:13:54.885Z,13.90
2019-05-02T04:16:28.224Z,16.30
2019-05-02T04:19:03.618Z,14.40
2019-05-02T04:21:36.008Z,16.80
2019-05-02T04:24:13.655Z,19.10
2019-05-02T04:26:52.672Z,17.30
2019-05-02T04:29:14.403Z,17.37
2019-05-02T04:31:45.444Z,16.17
2019-05-02T04:34:17.940Z,15.60
2019-05-02T04:37:00.177Z,16.20
2019-05-02T04:39:22.654Z,15.77
2019-05-02T04:41:53.933Z,12.83
2019-05-02T04:44:32.457Z,14.30
2019-05-02T04:46:59.971Z,12.43
2019-05-02T04:49:35.685Z,12.53
2019-05-02T04:52:07.793Z,11.07
2019-05-02T04:54:38.067Z,16.33
2019-05-02T04:57:09.124Z,11.17
2019-05-02T04:59:41.270Z,11.03
2019-05-02T05:02:12.193Z,11.03
2019-05-02T05:04:48.633Z,11.60
2019-05-02T05:07:17.708Z,12.83
2019-05-02T05:09:56.983Z,9.47
2019-05-02T05:12:21.123Z,9.67
2019-05-02T05:14:52.213Z,12.77
2019-05-02T05:17:25.105Z,10.53
2019-05-02T05:19:57.383Z,11.40
2019-05-02T05:22:28.754Z,13.60
2019-05-02T05:25:07.274Z,12.27
2019-05-02T05:27:38.241Z,13.63
2019-05-02T05:30:15.634Z,11.60
2019-05-02T05:32:47.782Z,10.57
2019-05-02T05:35:18.564Z,12.93
2019-05-02T05:37:53.107Z,11.87
2019-05-02T05:40:27.142Z,12.40
2019-05-02T05:42:57.231Z,10.67
2019-05-02T05:45:28.784Z,13.03
2019-05-02T05:48:01.329Z,10.77
2019-05-02T05:50:36.867Z,11.17
2019-05-02T05:53:05.380Z,9.87
2019-05-02T05:55:38.211Z,10.53
2019-05-02T05:58:15.344Z,8.07
2019-05-02T06:00:46.004Z,8.20
2019-05-02T06:03:15.463Z,7.87
2019-05-02T06:05:47.729Z,8.30
2019-05-02T06:08:19.955Z,11.03
2019-05-02T06:10:51.643Z,10.67
2019-05-02T06:13:22.726Z,12.03
2019-05-02T06:16:02.083Z,10.73
2019-05-02T06:18:28.354Z,10.50
2019-05-02T06:21:03.427Z,13.10
2019-05-02T06:23:36.356Z,13.03
2019-05-02T06:26:07.956Z,10.60
2019-05-02T06:28:41.662Z,9.80
2019-05-02T06:31:11.735Z,11.27
2019-05-02T06:33:43.414Z,12.33
2019-05-02T06:36:15.227Z,9.47
2019-05-02T06:38:46.775Z,9.23
2019-05-02T06:41:21.020Z,10.80
2019-05-02T06:43:51.414Z,8.80
2019-05-02T06:46:27.499Z,15.20
2019-05-02T06:49:04.735Z,11.67
2019-05-02T06:54:40.553Z,14.13
2019-05-02T06:57:11.724Z,11.27
2019-05-02T06:59:42.933Z,13.17
2019-05-02T07:02:15.203Z,11.27
2019-05-02T07:04:49.524Z,12.07
2019-05-02T07:07:25.094Z,10.20
2019-05-02T07:09:54.561Z,14.37
2019-05-02T07:12:26.023Z,13.30
2019-05-02T07:15:01.574Z,11.07
2019-05-02T07:17:38.485Z,10.67
2019-05-02T07:20:10.186Z,12.93
2019-05-02T07:22:45.465Z,10.77
2019-05-02T07:25:18.321Z,10.77
2019-05-02T07:27:51.331Z,8.67
2019-05-02T07:30:23.090Z,11.27
2019-05-02T07:32:56.279Z,9.83
2019-05-02T07:35:26.820Z,8.90
2019-05-02T07:37:59.588Z,9.83
2019-05-02T07:40:31.137Z,8.30
2019-05-02T07:43:02.873Z,8.63
2019-05-02T07:45:34.593Z,8.60
2019-05-02T07:48:06.094Z,9.57
2019-05-02T07:50:41.207Z,8.60
2019-05-02T07:53:14.143Z,9.80
2019-05-02T07:55:42.794Z,10.10
2019-05-02T07:58:14.196Z,8.90
2019-05-02T08:00:45.684Z,6.13
2019-05-02T08:03:17.279Z,10.47
2019-05-02T08:05:54.497Z,8.37
2019-05-02T08:08:29.861Z,8.20
2019-05-02T08:11:01.715Z,5.27
2019-05-02T08:13:33.767Z,7.90
2019-05-02T08:16:04.894Z,8.53
2019-05-02T08:18:36.056Z,7.53
2019-05-02T08:21:07.323Z,8.30
2019-05-02T08:23:39.080Z,7.83
2019-05-02T08:26:10.231Z,7.13
2019-05-02T08:28:55.577Z,6.57
2019-05-02T08:31:30.030Z,5.87
2019-05-02T08:34:00.020Z,12.23
2019-05-02T08:36:32.258Z,7.67
2019-05-02T08:39:05.429Z,9.73
2019-05-02T08:41:40.165Z,9.20
2019-05-02T08:44:16.840Z,5.63
2019-05-02T08:46:46.158Z,8.17
2019-05-02T08:49:18.855Z,7.53
2019-05-02T08:51:51.471Z,6.97
2019-05-02T08:54:23.172Z,8.60
2019-05-02T08:56:58.990Z,4.83
2019-05-02T08:59:27.684Z,5.97
2019-05-02T09:01:58.949Z,6.23
2019-05-02T09:04:30.687Z,7.13
2019-05-02T09:07:04.122Z,7.03
2019-05-02T09:09:35.256Z,7.40
2019-05-02T09:12:12.293Z,6.97
2019-05-02T09:14:39.964Z,5.63
2019-05-02T09:17:15.859Z,5.23
2019-05-02T09:19:59.438Z,7.97
2019-05-02T09:22:22.067Z,7.00
2019-05-02T09:24:54.355Z,5.47
2019-05-02T09:27:34.948Z,6.17
2019-05-02T09:30:12.061Z,7.97
2019-05-02T09:32:44.049Z,4.23
2019-05-02T09:35:17.622Z,4.10
2019-05-02T09:37:49.540Z,4.60
2019-05-02T09:40:23.434Z,4.73
2019-05-02T09:43:00.215Z,8.00
2019-05-02T09:45:37.007Z,4.93
2019-05-02T09:48:08.151Z,5.23
2019-05-02T09:50:45.012Z,4.13
2019-05-02T09:53:20.619Z,5.10
2019-05-02T09:55:55.743Z,6.53
2019-05-02T09:58:25.585Z,4.67
2019-05-02T10:01:03.958Z,5.00
2019-05-02T10:03:36.257Z,7.17
2019-05-02T10:06:13.887Z,5.30
2019-05-02T10:08:46.301Z,3.93
2019-05-02T10:11:23.880Z,6.10
2019-05-02T10:13:55.433Z,8.73
2019-05-02T10:16:31.973Z,4.90
2019-05-02T10:19:09.462Z,6.47
2019-05-02T10:22:31.072Z,5.13
2019-05-02T10:25:08.494Z,6.10
2019-05-02T10:27:45.945Z,6.30
2019-05-02T10:30:18.131Z,8.77
2019-05-02T10:32:52.927Z,7.60
2019-05-02T10:35:34.080Z,6.03
2019-05-02T10:41:01.331Z,5.90
2019-05-02T10:43:34.239Z,7.53
2019-05-02T10:46:23.042Z,5.93
2019-05-02T10:49:01.975Z,9.93
2019-05-02T10:51:34.669Z,6.17
2019-05-02T10:54:07.065Z,5.87
2019-05-02T10:56:39.757Z,7.67
2019-05-02T10:59:12.267Z,6.77
2019-05-02T11:02:06.585Z,6.10
2019-05-02T11:04:43.623Z,8.30
2019-05-02T11:07:16.977Z,9.70
2019-05-02T11:09:49.080Z,7.53
2019-05-02T11:12:44.506Z,9.47
2019-05-02T11:15:33.031Z,9.10
2019-05-02T11:18:04.691Z,7.87
2019-05-02T11:20:35.977Z,7.93
2019-05-02T11:23:07.484Z,8.83
2019-05-02T11:25:38.751Z,8.93
2019-05-02T11:28:09.938Z,8.73
2019-05-02T11:30:42.050Z,9.00
2019-05-02T11:33:32.466Z,9.47
2019-05-02T11:36:03.512Z,8.33
2019-05-02T11:38:40.894Z,10.23
2019-05-02T11:41:22.260Z,11.00
2019-05-02T11:43:55.860Z,8.27
2019-05-02T11:46:26.999Z,8.93
2019-05-02T11:49:02.414Z,9.23
2019-05-02T11:51:33.924Z,6.30
2019-05-02T11:54:09.203Z,7.87
2019-05-02T11:56:41.104Z,8.30
2019-05-02T11:59:14.422Z,7.43
2019-05-02T12:01:57.637Z,6.93
2019-05-02T12:04:21.526Z,6.23
2019-05-02T12:07:01.142Z,8.90
2019-05-02T12:09:25.680Z,7.43
2019-05-02T12:11:59.423Z,6.97
2019-05-02T12:14:32.875Z,7.00
2019-05-02T12:17:03.137Z,6.47
2019-05-02T12:19:34.325Z,9.80
2019-05-02T12:22:07.274Z,7.27
2019-05-02T12:24:40.927Z,6.23
2019-05-02T12:27:11.785Z,10.97
2019-05-02T12:29:42.912Z,9.53
2019-05-02T12:32:19.179Z,8.47
2019-05-02T12:34:50.220Z,7.67
2019-05-02T12:37:21.920Z,7.67
2019-05-02T12:39:53.231Z,8.50
2019-05-02T12:42:25.383Z,6.37
2019-05-02T12:44:57.409Z,5.57
2019-05-02T12:47:28.699Z,8.17
2019-05-02T12:49:59.642Z,7.77
2019-05-02T12:52:32.054Z,10.43
2019-05-02T12:55:03.948Z,6.10
2019-05-02T12:57:35.060Z,6.20
2019-05-02T13:00:07.387Z,6.40
2019-05-02T13:02:46.576Z,6.57
2019-05-02T13:05:17.761Z,6.60
2019-05-02T13:07:53.564Z,5.17
2019-05-02T13:10:32.700Z,4.97
2019-05-02T13:13:04.644Z,5.47
2019-05-02T13:15:35.978Z,6.30
2019-05-02T13:18:07.426Z,8.47
2019-05-02T13:20:41.736Z,8.97
2019-05-02T13:23:37.046Z,6.73
2019-05-02T13:26:18.464Z,4.93
2019-05-02T13:28:42.338Z,5.67
2019-05-02T13:31:32.055Z,4.20
2019-05-02T13:34:18.623Z,5.13
2019-05-02T13:36:51.934Z,6.47
2019-05-02T13:39:42.850Z,6.43
2019-05-02T13:42:14.786Z,3.97
2019-05-02T13:47:42.778Z,4.67
2019-05-02T13:50:22.187Z,4.77
2019-05-02T13:53:07.199Z,5.47
2019-05-02T13:55:57.846Z,4.53
2019-05-02T13:58:32.673Z,5.73
2019-05-02T14:01:03.433Z,7.27
2019-05-02T14:03:35.216Z,6.77
2019-05-02T14:06:07.158Z,9.73
2019-05-02T14:08:56.181Z,4.63
2019-05-02T14:11:48.993Z,5.23
2019-05-02T14:14:20.371Z,6.57
2019-05-02T14:16:53.021Z,5.33
2019-05-02T14:19:24.147Z,5.60
2019-05-02T14:21:55.259Z,5.07
2019-05-02T14:24:26.409Z,5.90
2019-05-02T14:26:58.136Z,4.63
2019-05-02T14:29:29.847Z,5.00
2019-05-02T14:32:02.703Z,4.93
2019-05-02T14:35:05.852Z,8.47
2019-05-02T14:37:38.384Z,4.80
2019-05-02T14:40:26.797Z,3.97
2019-05-02T14:43:05.262Z,3.90
2019-05-02T14:45:43.761Z,3.60
2019-05-02T14:48:21.390Z,4.63
2019-05-02T14:50:52.098Z,4.27
2019-05-02T14:53:25.500Z,5.47
2019-05-02T14:56:04.393Z,8.40
2019-05-02T14:58:32.510Z,4.50
2019-05-02T15:01:04.107Z,4.60
2019-05-02T15:03:35.688Z,4.20
2019-05-02T15:06:07.268Z,4.43
2019-05-02T15:08:41.952Z,7.70
2019-05-02T15:11:12.532Z,7.20
2019-05-02T15:13:44.173Z,7.13
2019-05-02T15:16:17.666Z,5.00
2019-05-02T15:18:52.505Z,5.73
2019-05-02T15:21:22.865Z,5.33
2019-05-02T15:23:57.775Z,6.40
2019-05-02T15:26:31.309Z,6.30
2019-05-02T15:29:01.791Z,7.73
2019-05-02T15:31:34.395Z,5.57
2019-05-02T15:34:35.522Z,4.77
2019-05-02T15:37:03.235Z,6.47
2019-05-02T15:42:12.094Z,4.30
2019-05-02T15:44:43.517Z,5.33
2019-05-02T15:47:37.105Z,5.70
2019-05-02T15:50:22.009Z,7.03
2019-05-02T15:53:03.164Z,5.10
2019-05-02T16:01:27.676Z,4.73
2019-05-02T16:04:01.607Z,5.43
2019-05-02T16:06:33.994Z,6.20
2019-05-02T16:09:07.169Z,6.50
2019-05-02T16:11:40.482Z,2.60
2019-05-02T16:14:12.784Z,3.77
2019-05-02T16:16:45.279Z,7.30
2019-05-02T16:19:27.132Z,5.97
2019-05-02T16:22:11.526Z,4.07
2019-05-02T16:24:43.866Z,11.20
2019-05-02T16:27:23.724Z,7.20
2019-05-02T16:29:58.433Z,8.20
2019-05-02T16:32:37.848Z,5.70
2019-05-02T16:35:15.296Z,8.53
2019-05-02T16:37:46.670Z,6.27
2019-05-02T16:40:23.913Z,7.97
2019-05-02T16:42:52.753Z,13.90
2019-05-02T16:45:24.064Z,7.03
2019-05-02T16:48:00.299Z,8.93
2019-05-02T16:50:32.983Z,7.23
2019-05-02T16:53:02.284Z,10.50
2019-05-02T16:55:34.210Z,7.07
2019-05-02T16:58:07.254Z,7.50
2019-05-02T17:00:42.580Z,5.73
2019-05-02T17:03:17.409Z,7.20
2019-05-02T17:05:48.042Z,4.10
2019-05-02T17:08:44.506Z,4.60
2019-05-02T17:11:20.340Z,6.37
2019-05-02T17:13:52.755Z,6.03
2019-05-02T17:16:24.140Z,5.87
2019-05-02T17:18:57.318Z,6.47
2019-05-02T17:21:33.733Z,6.13
2019-05-02T17:24:02.869Z,5.30
2019-05-02T17:26:34.301Z,5.53
2019-05-02T17:29:07.506Z,5.10
2019-05-02T17:31:39.572Z,3.93
2019-05-02T17:34:14.796Z,5.00
2019-05-02T17:36:46.711Z,5.77
2019-05-02T17:39:22.149Z,6.10
2019-05-02T17:41:54.146Z,3.43
2019-05-02T17:44:26.090Z,5.03
2019-05-02T17:47:01.502Z,6.43
2019-05-02T17:49:36.599Z,6.53
2019-05-02T17:52:33.521Z,5.53
2019-05-02T17:55:06.763Z,8.67
2019-05-02T17:57:37.741Z,5.23
2019-05-02T18:00:16.930Z,7.30
2019-05-02T18:02:51.844Z,8.53
2019-05-02T18:05:21.727Z,5.47
2019-05-02T18:07:52.764Z,18.70
2019-05-02T18:10:25.123Z,10.47
2019-05-02T18:12:59.755Z,7.53
2019-05-02T18:15:34.765Z,6.20
2019-05-02T18:18:06.536Z,8.53
2019-05-02T18:20:37.137Z,6.57
2019-05-02T18:23:09.347Z,8.00
2019-05-02T18:25:40.928Z,5.90
2019-05-02T18:28:14.036Z,8.73
2019-05-02T18:30:44.944Z,5.77
2019-05-02T18:33:15.960Z,5.50
2019-05-02T18:35:47.353Z,6.27
2019-05-02T18:38:20.911Z,7.33
2019-05-02T18:40:52.138Z,6.70
2019-05-02T18:43:23.693Z,6.33
2019-05-02T18:45:58.190Z,14.37
2019-05-02T18:48:27.599Z,7.70
2019-05-02T18:50:59.120Z,5.80
2019-05-02T18:53:30.061Z,5.33
2019-05-02T18:56:03.460Z,7.60
2019-05-02T18:58:36.340Z,8.07
2019-05-02T19:01:08.597Z,9.93
2019-05-02T19:03:39.751Z,7.40
2019-05-02T19:06:11.703Z,10.33
2019-05-02T19:08:49.615Z,7.23
2019-05-02T19:11:19.811Z,7.87
2019-05-02T19:13:52.519Z,7.57
2019-05-02T19:16:27.258Z,8.13
2019-05-02T19:18:57.644Z,5.77
2019-05-02T19:21:32.102Z,10.17
2019-05-02T19:24:02.406Z,8.40
2019-05-02T19:26:33.769Z,8.33
2019-05-02T19:29:33.153Z,8.43
2019-05-02T19:32:06.594Z,11.63
2019-05-02T19:34:41.797Z,24.50
2019-05-02T19:37:13.348Z,10.33
2019-05-02T19:39:48.720Z,28.70
2019-05-02T19:42:22.649Z,9.20
2019-05-02T19:44:54.378Z,8.07
2019-05-02T19:47:25.510Z,8.30
2019-05-02T19:49:56.867Z,11.10
2019-05-02T19:52:28.558Z,7.33
2019-05-02T19:55:00.610Z,6.93
2019-05-02T19:57:32.423Z,10.93
2019-05-02T20:00:06.552Z,7.20
2019-05-02T20:02:42.241Z,9.47
2019-05-02T20:05:11.824Z,7.83
2019-05-02T20:07:43.823Z,11.00
2019-05-02T20:10:17.893Z,5.83
2019-05-02T20:12:50.461Z,6.07
2019-05-02T20:15:26.814Z,8.93
2019-05-02T20:18:00.423Z,8.23
2019-05-02T20:21:25.967Z,9.47
2019-05-02T20:23:52.637Z,6.40
2019-05-02T20:26:23.926Z,6.60
2019-05-02T20:28:55.017Z,10.43
2019-05-02T20:31:26.690Z,7.23
2019-05-02T20:33:58.454Z,10.43
2019-05-02T20:36:31.982Z,9.30
2019-05-02T20:39:03.632Z,5.70
2019-05-02T20:41:36.439Z,7.30
2019-05-02T20:44:08.489Z,6.13
2019-05-02T20:46:39.656Z,9.00
2019-05-02T20:49:12.614Z,8.47
2019-05-02T20:51:45.050Z,8.37
2019-05-02T20:54:16.455Z,7.53
2019-05-02T20:56:49.194Z,9.17
2019-05-02T20:59:21.829Z,11.23
2019-05-02T21:01:53.646Z,9.83
2019-05-02T21:04:25.320Z,8.67
2019-05-02T21:07:10.839Z,9.00
2019-05-02T21:09:56.198Z,10.93
2019-05-02T21:12:28.998Z,8.83
2019-05-02T21:15:01.741Z,7.67
2019-05-02T21:17:34.997Z,7.83
2019-05-02T21:20:07.838Z,10.63
2019-05-02T21:22:39.357Z,9.83
2019-05-02T21:25:12.861Z,8.87
2019-05-02T21:27:44.038Z,8.67
2019-05-02T21:30:17.836Z,9.77
2019-05-02T21:32:49.726Z,9.67
2019-05-02T21:35:22.387Z,9.63
2019-05-02T21:37:53.968Z,7.60
2019-05-02T21:40:25.936Z,11.10
2019-05-02T21:42:57.677Z,7.80
2019-05-02T21:45:29.286Z,7.20
2019-05-02T21:48:02.301Z,9.17
2019-05-02T21:50:51.556Z,9.70
2019-05-02T21:53:58.468Z,7.43
2019-05-02T21:56:45.805Z,8.33
2019-05-02T21:59:18.398Z,8.03
2019-05-02T22:01:55.247Z,7.93
2019-05-02T22:04:27.162Z,10.17
2019-05-02T22:06:58.877Z,8.63
2019-05-02T22:09:32.181Z,7.73
2019-05-02T22:12:03.878Z,10.60
2019-05-02T22:14:35.598Z,10.50
2019-05-02T22:17:07.438Z,10.57
2019-05-02T22:19:39.000Z,8.27
2019-05-02T22:22:12.218Z,12.53
2019-05-02T22:24:43.956Z,7.43
2019-05-02T22:27:15.637Z,7.97
2019-05-02T22:29:47.076Z,11.27
2019-05-02T22:32:18.757Z,8.23
2019-05-02T22:34:52.762Z,9.97
2019-05-02T22:37:24.582Z,9.23
2019-05-02T22:40:03.629Z,6.80
2019-05-02T22:42:32.866Z,7.70
2019-05-02T22:45:04.782Z,11.27
2019-05-02T22:47:35.966Z,9.53
2019-05-02T22:50:07.392Z,11.00
2019-05-02T22:52:38.474Z,10.03
2019-05-02T22:55:09.524Z,11.17
2019-05-02T22:57:42.065Z,9.80
2019-05-02T23:00:13.396Z,10.10
2019-05-02T23:02:44.344Z,7.07
2019-05-02T23:05:15.603Z,8.03
2019-05-02T23:07:46.782Z,7.60
2019-05-02T23:10:17.866Z,8.17
2019-05-02T23:12:48.928Z,8.13
2019-05-02T23:15:21.685Z,9.93
2019-05-02T23:17:52.656Z,8.67
2019-05-02T23:20:24.444Z,6.87
2019-05-02T23:22:55.576Z,7.63
2019-05-02T23:25:44.309Z,8.47
2019-05-02T23:28:22.163Z,8.67
2019-05-02T23:30:55.148Z,7.93
2019-05-02T23:33:28.477Z,8.17
2019-05-02T23:35:59.316Z,10.43
2019-05-02T23:38:32.200Z,10.60
2019-05-02T23:41:02.896Z,9.07
2019-05-02T23:43:33.970Z,9.83
2019-05-02T23:46:05.162Z,6.87
2019-05-02T23:48:36.074Z,5.90
2019-05-02T23:51:07.159Z,7.83
2019-05-02T23:53:38.104Z,5.80
2019-05-02T23:56:09.178Z,5.83
2019-05-02T23:58:40.221Z,9.87
